createdAt,value
2023-03-22T00:02:46.767Z,39.60
2023-03-22T00:05:13.867Z,38.70
2023-03-22T00:08:00.546Z,38.10
2023-03-22T00:10:30.169Z,41.10
2023-03-22T00:12:57.093Z,40.30
2023-03-22T00:15:25.930Z,37.90
2023-03-22T00:17:52.756Z,39.60
2023-03-22T00:20:23.085Z,40.90
2023-03-22T00:22:50.893Z,38.20
2023-03-22T00:25:20.593Z,38.90
2023-03-22T00:27:49.066Z,39.30
2023-03-22T00:30:16.279Z,36.70
2023-03-22T00:32:43.993Z,38.50
2023-03-22T00:35:11.887Z,41.00
2023-03-22T00:37:39.203Z,41.60
2023-03-22T00:40:10.751Z,41.80
2023-03-22T00:42:38.710Z,45.20
2023-03-22T00:45:07.633Z,46.10
2023-03-22T00:47:34.879Z,41.90
2023-03-22T00:50:07.267Z,47.40
2023-03-22T00:52:34.292Z,45.20
2023-03-22T00:55:02.405Z,46.90
2023-03-22T00:57:29.933Z,43.60
2023-03-22T00:59:57.807Z,44.20
2023-03-22T01:02:29.556Z,43.70
2023-03-22T01:04:57.360Z,42.00
2023-03-22T01:07:24.299Z,42.10
2023-03-22T01:09:51.857Z,42.90
2023-03-22T01:12:18.848Z,42.20
2023-03-22T01:14:45.906Z,42.30
2023-03-22T01:17:17.985Z,42.00
2023-03-22T01:19:55.750Z,41.10
2023-03-22T01:22:24.018Z,41.70
2023-03-22T01:24:55.426Z,43.90
2023-03-22T01:27:47.525Z,42.20
2023-03-22T01:30:15.863Z,43.50
2023-03-22T01:32:44.903Z,47.60
2023-03-22T01:35:12.580Z,43.20
2023-03-22T01:37:40.996Z,42.30
2023-03-22T01:40:17.223Z,35.70
2023-03-22T01:43:26.356Z,37.30
2023-03-22T01:45:55.920Z,34.40
2023-03-22T01:48:27.818Z,35.30
2023-03-22T01:51:09.796Z,36.20
2023-03-22T01:53:54.236Z,35.90
2023-03-22T01:56:24.407Z,36.10
2023-03-22T01:58:51.295Z,35.20
2023-03-22T02:01:20.569Z,35.50
2023-03-22T02:03:51.881Z,37.00
2023-03-22T02:06:19.006Z,37.60
2023-03-22T02:08:47.159Z,38.80
2023-03-22T02:11:27.607Z,36.50
2023-03-22T02:14:19.243Z,39.20
2023-03-22T02:17:27.636Z,40.60
2023-03-22T02:20:24.025Z,43.30
2023-03-22T02:23:16.398Z,40.20
2023-03-22T02:26:06.889Z,36.40
2023-03-22T02:28:58.331Z,39.00
2023-03-22T02:31:46.829Z,37.60
2023-03-22T02:34:28.183Z,41.20
2023-03-22T02:37:11.056Z,39.10
2023-03-22T02:42:45.713Z,39.80
2023-03-22T02:45:22.430Z,35.00
2023-03-22T02:48:18.499Z,38.90
2023-03-22T02:51:07.832Z,34.90
2023-03-22T02:53:40.287Z,37.00
2023-03-22T02:56:19.353Z,35.30
2023-03-22T02:58:48.590Z,36.00
2023-03-22T03:01:26.695Z,36.30
2023-03-22T03:03:56.854Z,36.10
2023-03-22T03:06:29.170Z,33.70
2023-03-22T03:08:57.628Z,33.30
2023-03-22T03:11:27.876Z,33.20
2023-03-22T03:13:55.808Z,30.60
2023-03-22T03:16:26.975Z,31.30
2023-03-22T03:19:10.499Z,29.50
2023-03-22T03:21:47.639Z,27.50
2023-03-22T03:24:26.840Z,29.30
2023-03-22T03:27:01.490Z,30.20
2023-03-22T03:30:02.480Z,26.60
2023-03-22T03:32:35.027Z,27.90
2023-03-22T03:35:21.776Z,28.00
2023-03-22T03:37:53.089Z,27.10
2023-03-22T03:40:33.262Z,26.20
2023-03-22T03:43:03.060Z,26.60
2023-03-22T03:45:30.901Z,26.30
2023-03-22T03:48:02.927Z,26.30
2023-03-22T03:50:29.917Z,27.10
2023-03-22T03:52:57.094Z,24.30
2023-03-22T03:55:24.426Z,26.20
2023-03-22T03:57:51.676Z,25.00
2023-03-22T04:00:19.022Z,25.00
2023-03-22T04:03:05.430Z,26.40
2023-03-22T04:05:55.472Z,28.00
2023-03-22T04:08:22.936Z,26.80
2023-03-22T04:10:51.387Z,26.40
2023-03-22T04:13:24.755Z,27.30
2023-03-22T04:15:53.811Z,28.70
2023-03-22T04:18:29.203Z,27.70
2023-03-22T04:20:56.990Z,33.10
2023-03-22T04:23:25.487Z,31.30
2023-03-22T04:25:59.147Z,30.10
2023-03-22T04:28:34.287Z,29.70
2023-03-22T04:31:08.109Z,31.90
2023-03-22T04:34:05.040Z,28.80
2023-03-22T04:36:49.272Z,30.00
2023-03-22T04:39:27.073Z,29.50
2023-03-22T04:42:14.475Z,32.40
2023-03-22T04:44:43.206Z,30.30
2023-03-22T04:47:10.326Z,30.50
2023-03-22T04:49:42.422Z,29.10
2023-03-22T04:52:11.450Z,28.60
2023-03-22T04:54:40.343Z,28.90
2023-03-22T04:57:09.884Z,33.60
2023-03-22T04:59:41.223Z,34.00
2023-03-22T05:02:08.475Z,28.70
2023-03-22T05:04:43.309Z,25.70
2023-03-22T05:07:33.151Z,26.80
2023-03-22T05:10:02.590Z,28.00
2023-03-22T05:12:31.531Z,27.30
2023-03-22T05:15:20.720Z,28.70
2023-03-22T05:17:48.220Z,26.90
2023-03-22T05:20:15.522Z,27.90
2023-03-22T05:22:50.209Z,28.20
2023-03-22T05:25:44.682Z,28.10
2023-03-22T05:28:19.063Z,26.70
2023-03-22T05:30:57.481Z,27.70
2023-03-22T05:33:34.388Z,28.10
2023-03-22T05:36:01.978Z,24.00
2023-03-22T05:38:31.112Z,26.60
2023-03-22T05:40:59.882Z,27.40
2023-03-22T05:43:27.387Z,27.00
2023-03-22T05:45:55.219Z,26.50
2023-03-22T05:48:33.407Z,24.90
2023-03-22T05:51:00.422Z,22.40
2023-03-22T05:53:31.419Z,25.60
2023-03-22T05:56:26.242Z,25.30
2023-03-22T05:59:02.238Z,22.10
2023-03-22T06:01:30.657Z,24.90
2023-03-22T06:04:16.334Z,20.80
2023-03-22T06:06:53.834Z,21.00
2023-03-22T06:09:33.598Z,21.50
2023-03-22T06:12:00.672Z,21.90
2023-03-22T06:14:27.486Z,20.60
2023-03-22T06:17:15.566Z,20.40
2023-03-22T06:19:43.717Z,21.90
2023-03-22T06:22:32.936Z,21.80
2023-03-22T06:25:00.757Z,21.30
2023-03-22T06:27:40.688Z,19.40
2023-03-22T06:30:08.436Z,22.00
2023-03-22T06:32:46.517Z,23.60
2023-03-22T06:35:14.685Z,24.80
2023-03-22T06:37:41.815Z,31.50
2023-03-22T06:40:12.108Z,33.10
2023-03-22T06:42:40.260Z,32.40
2023-03-22T06:45:10.253Z,23.60
2023-03-22T06:47:38.780Z,20.00
2023-03-22T06:50:06.005Z,19.80
2023-03-22T06:53:10.829Z,22.00
2023-03-22T06:55:39.490Z,20.40
2023-03-22T06:58:19.540Z,22.60
2023-03-22T07:00:46.361Z,23.00
2023-03-22T07:03:13.792Z,20.20
2023-03-22T07:05:52.456Z,20.60
2023-03-22T07:08:20.350Z,20.30
2023-03-22T07:10:50.689Z,21.20
2023-03-22T07:13:20.746Z,22.20
2023-03-22T07:15:48.428Z,22.60
2023-03-22T07:18:37.246Z,23.00
2023-03-22T07:21:06.895Z,23.90
2023-03-22T07:23:35.178Z,24.70
2023-03-22T07:28:35.052Z,21.30
2023-03-22T07:31:11.027Z,20.80
2023-03-22T07:34:04.204Z,17.10
2023-03-22T07:36:37.764Z,19.20
2023-03-22T07:39:05.831Z,18.20
2023-03-22T07:41:35.085Z,17.70
2023-03-22T07:44:19.445Z,16.10
2023-03-22T07:46:52.026Z,16.10
2023-03-22T07:49:28.185Z,16.60
2023-03-22T07:52:15.656Z,17.10
2023-03-22T07:54:44.815Z,16.10
2023-03-22T07:57:14.465Z,20.20
2023-03-22T07:59:46.556Z,17.90
2023-03-22T08:02:14.030Z,17.70
2023-03-22T08:07:37.134Z,15.20
2023-03-22T08:10:05.527Z,14.40
2023-03-22T08:12:33.542Z,15.40
2023-03-22T08:15:09.095Z,13.80
2023-03-22T08:17:36.727Z,13.90
2023-03-22T08:20:08.339Z,15.80
2023-03-22T08:22:45.590Z,19.60
2023-03-22T08:25:29.210Z,14.60
2023-03-22T08:28:03.787Z,15.30
2023-03-22T08:30:32.293Z,14.80
2023-03-22T08:32:59.188Z,15.00
2023-03-22T08:35:27.186Z,16.40
2023-03-22T08:37:55.278Z,15.00
2023-03-22T08:40:26.660Z,15.10
2023-03-22T08:43:00.958Z,16.90
2023-03-22T08:45:29.524Z,14.70
2023-03-22T08:48:04.456Z,14.70
2023-03-22T08:50:35.675Z,14.40
2023-03-22T08:53:13.392Z,14.10
2023-03-22T08:55:44.354Z,14.70
2023-03-22T08:58:12.535Z,16.00
2023-03-22T09:00:48.901Z,15.00
2023-03-22T09:03:24.441Z,14.10
2023-03-22T09:05:52.951Z,17.70
2023-03-22T09:08:24.165Z,14.90
2023-03-22T09:10:57.394Z,12.70
2023-03-22T09:13:24.628Z,13.50
2023-03-22T09:16:02.370Z,14.00
2023-03-22T09:18:34.168Z,12.80
2023-03-22T09:21:05.013Z,13.20
2023-03-22T09:23:41.493Z,15.90
2023-03-22T09:26:10.056Z,12.80
2023-03-22T09:28:37.940Z,12.50
2023-03-22T09:31:07.503Z,10.40
2023-03-22T09:33:35.782Z,11.60
2023-03-22T09:36:04.037Z,11.20
2023-03-22T09:38:38.374Z,11.60
2023-03-22T09:41:06.678Z,12.60
2023-03-22T09:43:42.131Z,11.20
2023-03-22T09:46:22.099Z,11.30
2023-03-22T09:48:49.443Z,11.30
2023-03-22T09:51:41.809Z,11.90
2023-03-22T09:54:32.933Z,13.30
2023-03-22T09:57:20.955Z,12.20
2023-03-22T10:00:16.025Z,12.10
2023-03-22T10:03:06.125Z,14.00
2023-03-22T10:05:57.904Z,12.60
2023-03-22T10:08:36.564Z,13.40
2023-03-22T10:11:27.259Z,10.90
2023-03-22T10:14:02.061Z,11.30
2023-03-22T10:16:33.662Z,11.00
2023-03-22T10:19:20.520Z,10.30
2023-03-22T10:21:52.583Z,9.00
2023-03-22T10:24:35.137Z,9.30
2023-03-22T10:27:02.034Z,12.50
2023-03-22T10:29:35.912Z,9.90
2023-03-22T10:32:56.389Z,9.30
2023-03-22T10:35:41.748Z,8.30
2023-03-22T10:38:13.123Z,8.90
2023-03-22T10:40:42.217Z,15.60
2023-03-22T10:43:40.972Z,8.90
2023-03-22T10:46:42.342Z,8.50
2023-03-22T10:49:43.087Z,7.10
2023-03-22T10:52:44.279Z,9.50
2023-03-22T10:55:24.758Z,9.30
2023-03-22T10:58:22.354Z,8.50
2023-03-22T11:01:08.316Z,11.50
2023-03-22T11:04:02.292Z,8.80
2023-03-22T11:06:37.883Z,7.20
2023-03-22T11:09:32.255Z,5.70
2023-03-22T11:12:32.132Z,7.90
2023-03-22T11:16:02.590Z,6.50
2023-03-22T11:18:59.207Z,7.90
2023-03-22T11:21:55.841Z,6.40
2023-03-22T11:24:58.244Z,6.20
2023-03-22T11:28:23.209Z,6.00
2023-03-22T11:31:19.910Z,6.00
2023-03-22T11:34:15.170Z,6.60
2023-03-22T11:37:07.206Z,6.30
2023-03-22T11:40:11.440Z,8.00
2023-03-22T11:43:08.204Z,7.60
2023-03-22T11:46:12.579Z,7.40
2023-03-22T11:49:06.467Z,8.40
2023-03-22T11:52:21.246Z,6.30
2023-03-22T11:55:19.585Z,6.50
2023-03-22T11:58:11.395Z,5.60
2023-03-22T12:00:53.318Z,7.10
2023-03-22T12:03:55.358Z,5.00
2023-03-22T12:35:52.347Z,5.80
2023-03-22T13:33:23.451Z,8.30
2023-03-22T13:41:27.378Z,6.90
2023-03-22T13:54:42.234Z,6.90
2023-03-22T13:57:16.964Z,7.70
2023-03-22T14:00:09.553Z,8.90
